sensor_id;sensor_type;location;lat;lon;timestamp;P1;P2;P0
77699;PMS5003;66867;42.658;23.320;2023-09-19T00:00:00;18;15;
77699;PMS5003;66867;42.658;23.320;2023-09-19T00:01:00;13;13;
77699;PMS5003;66867;42.658;23.320;2023-09-19T00:02:00;15;14;
77699;PMS5003;66867;42.658;23.320;2023-09-19T00:03:00;18;18;
77699;PMS5003;66867;42.658;23.320;2023-09-19T00:04:00;17;16;
77699;PMS5003;66867;42.658;23.320;2023-09-19T00:05:00;14;14;
77699;PMS5003;66867;42.658;23.320;2023-09-19T00:06:00;15;15;
77699;PMS5003;66867;42.658;23.320;2023-09-19T00:07:00;14;12;
77699;PMS5003;66867;42.658;23.320;2023-09-19T00:08:01;17;15;
77699;PMS5003;66867;42.658;23.320;2023-09-19T00:09:00;15;15;
77699;PMS5003;66867;42.658;23.320;2023-09-19T00:10:00;18;17;
77699;PMS5003;66867;42.658;23.320;2023-09-19T00:11:00;16;16;
77699;PMS5003;66867;42.658;23.320;2023-09-19T00:12:00;17;17;
77699;PMS5003;66867;42.658;23.320;2023-09-19T00:13:02;18;18;
77699;PMS5003;66867;42.658;23.320;2023-09-19T00:14:00;17;16;
77699;PMS5003;66867;42.658;23.320;2023-09-19T00:15:00;18;17;
77699;PMS5003;66867;42.658;23.320;2023-09-19T00:16:00;14;14;
77699;PMS5003;66867;42.658;23.320;2023-09-19T00:17:00;14;14;
77699;PMS5003;66867;42.658;23.320;2023-09-19T00:18:00;13;13;
77699;PMS5003;66867;42.658;23.320;2023-09-19T00:19:00;13;12;
77699;PMS5003;66867;42.658;23.320;2023-09-19T00:20:00;13;13;
77699;PMS5003;66867;42.658;23.320;2023-09-19T00:21:00;14;14;
77699;PMS5003;66867;42.658;23.320;2023-09-19T00:22:00;13;12;
77699;PMS5003;66867;42.658;23.320;2023-09-19T00:23:00;13;13;
77699;PMS5003;66867;42.658;23.320;2023-09-19T00:24:00;11;11;
77699;PMS5003;66867;42.658;23.320;2023-09-19T00:25:00;16;14;
77699;PMS5003;66867;42.658;23.320;2023-09-19T00:26:00;15;15;
77699;PMS5003;66867;42.658;23.320;2023-09-19T00:27:00;14;14;
77699;PMS5003;66867;42.658;23.320;2023-09-19T00:28:01;13;13;
77699;PMS5003;66867;42.658;23.320;2023-09-19T00:29:00;15;14;
77699;PMS5003;66867;42.658;23.320;2023-09-19T00:30:00;15;14;
77699;PMS5003;66867;42.658;23.320;2023-09-19T00:31:00;13;13;
77699;PMS5003;66867;42.658;23.320;2023-09-19T00:32:00;16;15;
77699;PMS5003;66867;42.658;23.320;2023-09-19T00:33:00;11;11;
77699;PMS5003;66867;42.658;23.320;2023-09-19T00:34:00;13;13;
77699;PMS5003;66867;42.658;23.320;2023-09-19T00:35:00;11;11;
77699;PMS5003;66867;42.658;23.320;2023-09-19T00:36:00;14;14;
77699;PMS5003;66867;42.658;23.320;2023-09-19T00:37:00;12;12;
77699;PMS5003;66867;42.658;23.320;2023-09-19T00:38:00;11;11;
77699;PMS5003;66867;42.658;23.320;2023-09-19T00:39:00;10;10;
77699;PMS5003;66867;42.658;23.320;2023-09-19T00:40:00;10;10;
77699;PMS5003;66867;42.658;23.320;2023-09-19T00:41:00;11;11;
77699;PMS5003;66867;42.658;23.320;2023-09-19T00:42:00;12;12;
77699;PMS5003;66867;42.658;23.320;2023-09-19T00:43:00;11;11;
77699;PMS5003;66867;42.658;23.320;2023-09-19T00:44:00;11;11;
77699;PMS5003;66867;42.658;23.320;2023-09-19T00:45:00;13;12;
77699;PMS5003;66867;42.658;23.320;2023-09-19T00:46:00;17;16;
77699;PMS5003;66867;42.658;23.320;2023-09-19T00:47:00;14;13;
77699;PMS5003;66867;42.658;23.320;2023-09-19T00:48:01;13;13;
77699;PMS5003;66867;42.658;23.320;2023-09-19T00:49:00;11;11;
77699;PMS5003;66867;42.658;23.320;2023-09-19T00:50:00;13;12;
77699;PMS5003;66867;42.658;23.320;2023-09-19T00:51:04;11;11;
77699;PMS5003;66867;42.658;23.320;2023-09-19T00:52:00;10;10;
77699;PMS5003;66867;42.658;23.320;2023-09-19T00:53:00;11;11;
77699;PMS5003;66867;42.658;23.320;2023-09-19T00:54:00;12;12;
77699;PMS5003;66867;42.658;23.320;2023-09-19T00:55:00;13;12;
77699;PMS5003;66867;42.658;23.320;2023-09-19T00:56:01;11;11;
77699;PMS5003;66867;42.658;23.320;2023-09-19T00:57:00;15;14;
77699;PMS5003;66867;42.658;23.320;2023-09-19T00:58:00;11;11;
77699;PMS5003;66867;42.658;23.320;2023-09-19T00:59:00;15;13;
77699;PMS5003;66867;42.658;23.320;2023-09-19T01:00:02;13;12;
77699;PMS5003;66867;42.658;23.320;2023-09-19T01:01:01;13;12;
77699;PMS5003;66867;42.658;23.320;2023-09-19T01:02:00;14;12;
77699;PMS5003;66867;42.658;23.320;2023-09-19T01:03:00;12;11;
77699;PMS5003;66867;42.658;23.320;2023-09-19T01:04:00;9;9;
77699;PMS5003;66867;42.658;23.320;2023-09-19T01:05:01;14;14;
77699;PMS5003;66867;42.658;23.320;2023-09-19T01:06:00;12;12;
77699;PMS5003;66867;42.658;23.320;2023-09-19T01:07:00;13;13;
77699;PMS5003;66867;42.658;23.320;2023-09-19T01:08:00;15;15;
77699;PMS5003;66867;42.658;23.320;2023-09-19T01:09:01;13;12;
77699;PMS5003;66867;42.658;23.320;2023-09-19T01:10:02;14;14;
77699;PMS5003;66867;42.658;23.320;2023-09-19T01:11:33;12;11;
77699;PMS5003;66867;42.658;23.320;2023-09-19T01:12:02;14;13;
77699;PMS5003;66867;42.658;23.320;2023-09-19T01:13:08;13;12;
77699;PMS5003;66867;42.658;23.320;2023-09-19T01:15:05;15;13;
77699;PMS5003;66867;42.658;23.320;2023-09-19T01:17:03;12;12;
77699;PMS5003;66867;42.658;23.320;2023-09-19T01:18:07;14;14;
77699;PMS5003;66867;42.658;23.320;2023-09-19T01:19:12;11;11;
77699;PMS5003;66867;42.658;23.320;2023-09-19T01:20:15;13;13;
77699;PMS5003;66867;42.658;23.320;2023-09-19T01:24:16;10;10;
77699;PMS5003;66867;42.658;23.320;2023-09-19T01:26:05;12;12;
77699;PMS5003;66867;42.658;23.320;2023-09-19T01:28:13;11;11;
77699;PMS5003;66867;42.658;23.320;2023-09-19T01:30:06;11;11;
77699;PMS5003;66867;42.658;23.320;2023-09-19T01:31:02;12;11;
77699;PMS5003;66867;42.658;23.320;2023-09-19T01:32:03;13;13;
77699;PMS5003;66867;42.658;23.320;2023-09-19T01:33:00;12;12;
77699;PMS5003;66867;42.658;23.320;2023-09-19T01:34:02;11;11;
77699;PMS5003;66867;42.658;23.320;2023-09-19T01:35:00;12;11;
77699;PMS5003;66867;42.658;23.320;2023-09-19T01:36:00;14;13;
77699;PMS5003;66867;42.658;23.320;2023-09-19T01:37:00;13;13;
77699;PMS5003;66867;42.658;23.320;2023-09-19T01:38:00;13;12;
77699;PMS5003;66867;42.658;23.320;2023-09-19T01:39:01;13;13;
77699;PMS5003;66867;42.658;23.320;2023-09-19T01:40:03;11;11;
77699;PMS5003;66867;42.658;23.320;2023-09-19T01:41:04;13;13;
77699;PMS5003;66867;42.658;23.320;2023-09-19T01:42:11;13;13;
77699;PMS5003;66867;42.658;23.320;2023-09-19T01:43:32;15;14;
77699;PMS5003;66867;42.658;23.320;2023-09-19T01:44:01;14;14;
77699;PMS5003;66867;42.658;23.320;2023-09-19T01:46:04;13;12;
77699;PMS5003;66867;42.658;23.320;2023-09-19T01:47:04;12;12;
77699;PMS5003;66867;42.658;23.320;2023-09-19T01:50:25;17;17;
77699;PMS5003;66867;42.658;23.320;2023-09-19T01:51:01;14;13;
77699;PMS5003;66867;42.658;23.320;2023-09-19T01:52:11;17;17;
77699;PMS5003;66867;42.658;23.320;2023-09-19T01:53:04;15;15;
77699;PMS5003;66867;42.658;23.320;2023-09-19T01:54:03;19;18;
77699;PMS5003;66867;42.658;23.320;2023-09-19T01:55:06;19;19;
77699;PMS5003;66867;42.658;23.320;2023-09-19T01:56:00;16;16;
77699;PMS5003;66867;42.658;23.320;2023-09-19T01:57:06;17;15;
77699;PMS5003;66867;42.658;23.320;2023-09-19T01:58:07;20;18;
77699;PMS5003;66867;42.658;23.320;2023-09-19T01:59:05;19;18;
77699;PMS5003;66867;42.658;23.320;2023-09-19T02:00:05;18;17;
77699;PMS5003;66867;42.658;23.320;2023-09-19T02:01:01;19;19;
77699;PMS5003;66867;42.658;23.320;2023-09-19T02:02:00;20;20;
77699;PMS5003;66867;42.658;23.320;2023-09-19T02:03:00;18;18;
77699;PMS5003;66867;42.658;23.320;2023-09-19T02:04:00;19;19;
77699;PMS5003;66867;42.658;23.320;2023-09-19T02:05:00;20;20;
77699;PMS5003;66867;42.658;23.320;2023-09-19T02:06:00;17;17;
77699;PMS5003;66867;42.658;23.320;2023-09-19T02:07:01;17;16;
77699;PMS5003;66867;42.658;23.320;2023-09-19T02:08:00;16;16;
77699;PMS5003;66867;42.658;23.320;2023-09-19T02:09:00;18;18;
77699;PMS5003;66867;42.658;23.320;2023-09-19T02:10:00;16;16;
77699;PMS5003;66867;42.658;23.320;2023-09-19T02:11:00;15;15;
77699;PMS5003;66867;42.658;23.320;2023-09-19T02:12:01;17;17;
77699;PMS5003;66867;42.658;23.320;2023-09-19T02:13:00;19;19;
77699;PMS5003;66867;42.658;23.320;2023-09-19T02:14:00;18;17;
77699;PMS5003;66867;42.658;23.320;2023-09-19T02:15:00;19;16;
77699;PMS5003;66867;42.658;23.320;2023-09-19T02:16:00;19;18;
77699;PMS5003;66867;42.658;23.320;2023-09-19T02:17:00;18;17;
77699;PMS5003;66867;42.658;23.320;2023-09-19T02:18:00;18;17;
77699;PMS5003;66867;42.658;23.320;2023-09-19T02:19:00;17;17;
77699;PMS5003;66867;42.658;23.320;2023-09-19T02:20:00;17;17;
77699;PMS5003;66867;42.658;23.320;2023-09-19T02:21:01;22;21;
77699;PMS5003;66867;42.658;23.320;2023-09-19T02:22:00;18;17;
77699;PMS5003;66867;42.658;23.320;2023-09-19T02:23:00;20;19;
77699;PMS5003;66867;42.658;23.320;2023-09-19T02:24:00;19;19;
77699;PMS5003;66867;42.658;23.320;2023-09-19T02:25:00;17;17;
77699;PMS5003;66867;42.658;23.320;2023-09-19T02:26:00;17;16;
77699;PMS5003;66867;42.658;23.320;2023-09-19T02:27:00;18;18;
77699;PMS5003;66867;42.658;23.320;2023-09-19T02:28:01;17;16;
77699;PMS5003;66867;42.658;23.320;2023-09-19T02:29:00;20;19;
77699;PMS5003;66867;42.658;23.320;2023-09-19T02:30:00;21;19;
77699;PMS5003;66867;42.658;23.320;2023-09-19T02:31:00;20;18;
77699;PMS5003;66867;42.658;23.320;2023-09-19T02:32:00;18;18;
77699;PMS5003;66867;42.658;23.320;2023-09-19T02:33:00;18;17;
77699;PMS5003;66867;42.658;23.320;2023-09-19T02:34:00;15;15;
77699;PMS5003;66867;42.658;23.320;2023-09-19T02:35:00;17;16;
77699;PMS5003;66867;42.658;23.320;2023-09-19T02:36:00;18;18;
77699;PMS5003;66867;42.658;23.320;2023-09-19T02:37:00;16;16;
77699;PMS5003;66867;42.658;23.320;2023-09-19T02:38:00;20;18;
77699;PMS5003;66867;42.658;23.320;2023-09-19T02:39:00;19;18;
77699;PMS5003;66867;42.658;23.320;2023-09-19T02:40:00;19;18;
77699;PMS5003;66867;42.658;23.320;2023-09-19T02:41:00;19;19;
77699;PMS5003;66867;42.658;23.320;2023-09-19T02:42:00;22;19;
77699;PMS5003;66867;42.658;23.320;2023-09-19T02:43:00;19;18;
77699;PMS5003;66867;42.658;23.320;2023-09-19T02:44:00;18;18;
77699;PMS5003;66867;42.658;23.320;2023-09-19T02:45:00;20;18;
77699;PMS5003;66867;42.658;23.320;2023-09-19T02:46:00;20;19;
77699;PMS5003;66867;42.658;23.320;2023-09-19T02:47:00;19;19;
77699;PMS5003;66867;42.658;23.320;2023-09-19T02:48:00;16;16;
77699;PMS5003;66867;42.658;23.320;2023-09-19T02:49:00;16;16;
77699;PMS5003;66867;42.658;23.320;2023-09-19T02:50:00;15;15;
77699;PMS5003;66867;42.658;23.320;2023-09-19T02:51:00;18;18;
77699;PMS5003;66867;42.658;23.320;2023-09-19T02:52:00;18;17;
77699;PMS5003;66867;42.658;23.320;2023-09-19T02:53:00;19;19;
77699;PMS5003;66867;42.658;23.320;2023-09-19T02:54:00;18;17;
77699;PMS5003;66867;42.658;23.320;2023-09-19T02:55:00;17;17;
77699;PMS5003;66867;42.658;23.320;2023-09-19T02:56:00;18;17;
77699;PMS5003;66867;42.658;23.320;2023-09-19T02:57:00;18;17;
77699;PMS5003;66867;42.658;23.320;2023-09-19T02:58:00;15;15;
77699;PMS5003;66867;42.658;23.320;2023-09-19T02:59:00;18;17;
77699;PMS5003;66867;42.658;23.320;2023-09-19T03:00:00;18;17;
77699;PMS5003;66867;42.658;23.320;2023-09-19T03:01:08;16;15;
77699;PMS5003;66867;42.658;23.320;2023-09-19T03:02:00;18;17;
77699;PMS5003;66867;42.658;23.320;2023-09-19T03:03:00;17;17;
77699;PMS5003;66867;42.658;23.320;2023-09-19T03:04:00;17;17;
77699;PMS5003;66867;42.658;23.320;2023-09-19T03:05:00;19;18;
77699;PMS5003;66867;42.658;23.320;2023-09-19T03:06:00;17;17;
77699;PMS5003;66867;42.658;23.320;2023-09-19T03:07:00;19;18;
77699;PMS5003;66867;42.658;23.320;2023-09-19T03:08:00;17;17;
77699;PMS5003;66867;42.658;23.320;2023-09-19T03:09:00;19;19;
77699;PMS5003;66867;42.658;23.320;2023-09-19T03:10:00;20;18;
77699;PMS5003;66867;42.658;23.320;2023-09-19T03:11:00;17;17;
77699;PMS5003;66867;42.658;23.320;2023-09-19T03:12:00;17;16;
77699;PMS5003;66867;42.658;23.320;2023-09-19T03:13:00;19;19;
77699;PMS5003;66867;42.658;23.320;2023-09-19T03:14:00;21;21;
77699;PMS5003;66867;42.658;23.320;2023-09-19T03:15:00;20;20;
77699;PMS5003;66867;42.658;23.320;2023-09-19T03:16:00;17;17;
77699;PMS5003;66867;42.658;23.320;2023-09-19T03:17:01;17;16;
77699;PMS5003;66867;42.658;23.320;2023-09-19T03:18:00;15;15;
77699;PMS5003;66867;42.658;23.320;2023-09-19T03:19:00;16;16;
77699;PMS5003;66867;42.658;23.320;2023-09-19T03:20:00;19;19;
77699;PMS5003;66867;42.658;23.320;2023-09-19T03:21:00;18;18;
77699;PMS5003;66867;42.658;23.320;2023-09-19T03:22:00;20;19;
77699;PMS5003;66867;42.658;23.320;2023-09-19T03:23:00;18;18;
77699;PMS5003;66867;42.658;23.320;2023-09-19T03:24:00;22;20;
77699;PMS5003;66867;42.658;23.320;2023-09-19T03:25:00;19;19;
77699;PMS5003;66867;42.658;23.320;2023-09-19T03:26:00;20;18;
77699;PMS5003;66867;42.658;23.320;2023-09-19T03:27:00;18;18;
77699;PMS5003;66867;42.658;23.320;2023-09-19T03:28:00;23;22;
77699;PMS5003;66867;42.658;23.320;2023-09-19T03:29:03;21;20;
77699;PMS5003;66867;42.658;23.320;2023-09-19T03:30:00;19;19;
77699;PMS5003;66867;42.658;23.320;2023-09-19T03:31:03;20;20;
77699;PMS5003;66867;42.658;23.320;2023-09-19T03:32:00;19;19;
77699;PMS5003;66867;42.658;23.320;2023-09-19T03:33:00;20;19;
77699;PMS5003;66867;42.658;23.320;2023-09-19T03:34:00;19;18;
77699;PMS5003;66867;42.658;23.320;2023-09-19T03:35:00;19;18;
77699;PMS5003;66867;42.658;23.320;2023-09-19T03:36:01;19;18;
77699;PMS5003;66867;42.658;23.320;2023-09-19T03:37:00;19;19;
77699;PMS5003;66867;42.658;23.320;2023-09-19T03:38:00;20;20;
77699;PMS5003;66867;42.658;23.320;2023-09-19T03:39:01;22;22;
77699;PMS5003;66867;42.658;23.320;2023-09-19T03:40:00;20;20;
77699;PMS5003;66867;42.658;23.320;2023-09-19T03:41:01;22;21;
77699;PMS5003;66867;42.658;23.320;2023-09-19T03:42:02;17;17;
77699;PMS5003;66867;42.658;23.320;2023-09-19T03:43:00;19;18;
77699;PMS5003;66867;42.658;23.320;2023-09-19T03:44:00;19;18;
77699;PMS5003;66867;42.658;23.320;2023-09-19T03:45:00;19;19;
77699;PMS5003;66867;42.658;23.320;2023-09-19T03:46:02;19;19;
77699;PMS5003;66867;42.658;23.320;2023-09-19T03:47:00;20;20;
77699;PMS5003;66867;42.658;23.320;2023-09-19T03:48:00;19;19;
77699;PMS5003;66867;42.658;23.320;2023-09-19T03:49:00;19;18;
77699;PMS5003;66867;42.658;23.320;2023-09-19T03:50:00;19;19;
77699;PMS5003;66867;42.658;23.320;2023-09-19T03:51:00;22;20;
77699;PMS5003;66867;42.658;23.320;2023-09-19T03:52:00;19;19;
77699;PMS5003;66867;42.658;23.320;2023-09-19T03:53:00;19;19;
77699;PMS5003;66867;42.658;23.320;2023-09-19T03:54:00;21;20;
77699;PMS5003;66867;42.658;23.320;2023-09-19T03:55:00;17;16;
77699;PMS5003;66867;42.658;23.320;2023-09-19T03:56:00;18;18;
77699;PMS5003;66867;42.658;23.320;2023-09-19T03:57:00;20;19;
77699;PMS5003;66867;42.658;23.320;2023-09-19T03:58:00;20;20;
77699;PMS5003;66867;42.658;23.320;2023-09-19T03:59:00;19;19;
77699;PMS5003;66867;42.658;23.320;2023-09-19T04:00:00;19;19;
77699;PMS5003;66867;42.658;23.320;2023-09-19T04:01:00;22;21;
77699;PMS5003;66867;42.658;23.320;2023-09-19T04:02:00;19;19;
77699;PMS5003;66867;42.658;23.320;2023-09-19T04:03:00;21;20;
77699;PMS5003;66867;42.658;23.320;2023-09-19T04:04:00;20;20;
77699;PMS5003;66867;42.658;23.320;2023-09-19T04:05:00;20;20;
77699;PMS5003;66867;42.658;23.320;2023-09-19T04:06:00;18;18;
77699;PMS5003;66867;42.658;23.320;2023-09-19T04:07:00;17;17;
77699;PMS5003;66867;42.658;23.320;2023-09-19T04:08:00;18;18;
77699;PMS5003;66867;42.658;23.320;2023-09-19T04:09:01;21;19;
77699;PMS5003;66867;42.658;23.320;2023-09-19T04:10:00;22;21;
77699;PMS5003;66867;42.658;23.320;2023-09-19T04:11:00;22;21;
77699;PMS5003;66867;42.658;23.320;2023-09-19T04:12:00;25;23;
77699;PMS5003;66867;42.658;23.320;2023-09-19T04:13:00;22;22;
77699;PMS5003;66867;42.658;23.320;2023-09-19T04:14:03;22;22;
77699;PMS5003;66867;42.658;23.320;2023-09-19T04:15:00;22;21;
77699;PMS5003;66867;42.658;23.320;2023-09-19T04:16:00;22;21;
77699;PMS5003;66867;42.658;23.320;2023-09-19T04:17:00;26;25;
77699;PMS5003;66867;42.658;23.320;2023-09-19T04:18:00;22;21;
77699;PMS5003;66867;42.658;23.320;2023-09-19T04:19:00;21;20;
77699;PMS5003;66867;42.658;23.320;2023-09-19T04:20:00;24;23;
77699;PMS5003;66867;42.658;23.320;2023-09-19T04:21:00;42;37;
77699;PMS5003;66867;42.658;23.320;2023-09-19T04:22:00;28;28;
77699;PMS5003;66867;42.658;23.320;2023-09-19T04:23:00;26;26;
77699;PMS5003;66867;42.658;23.320;2023-09-19T04:24:00;25;25;
77699;PMS5003;66867;42.658;23.320;2023-09-19T04:25:00;20;19;
77699;PMS5003;66867;42.658;23.320;2023-09-19T04:26:00;25;24;
77699;PMS5003;66867;42.658;23.320;2023-09-19T04:27:00;21;21;
77699;PMS5003;66867;42.658;23.320;2023-09-19T04:28:00;24;23;
77699;PMS5003;66867;42.658;23.320;2023-09-19T04:29:00;23;23;
77699;PMS5003;66867;42.658;23.320;2023-09-19T04:30:00;19;19;
77699;PMS5003;66867;42.658;23.320;2023-09-19T04:31:00;23;22;
77699;PMS5003;66867;42.658;23.320;2023-09-19T04:32:00;24;22;
77699;PMS5003;66867;42.658;23.320;2023-09-19T04:33:00;20;20;
77699;PMS5003;66867;42.658;23.320;2023-09-19T04:34:00;23;23;
77699;PMS5003;66867;42.658;23.320;2023-09-19T04:35:00;25;25;
77699;PMS5003;66867;42.658;23.320;2023-09-19T04:36:00;23;23;
77699;PMS5003;66867;42.658;23.320;2023-09-19T04:37:00;22;20;
77699;PMS5003;66867;42.658;23.320;2023-09-19T04:38:00;20;20;
77699;PMS5003;66867;42.658;23.320;2023-09-19T04:39:00;26;26;
77699;PMS5003;66867;42.658;23.320;2023-09-19T04:40:00;24;23;
77699;PMS5003;66867;42.658;23.320;2023-09-19T04:41:00;26;26;
77699;PMS5003;66867;42.658;23.320;2023-09-19T04:42:00;27;24;
77699;PMS5003;66867;42.658;23.320;2023-09-19T04:43:00;26;25;
77699;PMS5003;66867;42.658;23.320;2023-09-19T04:44:00;23;22;
77699;PMS5003;66867;42.658;23.320;2023-09-19T04:45:00;21;21;
77699;PMS5003;66867;42.658;23.320;2023-09-19T04:46:00;23;23;
77699;PMS5003;66867;42.658;23.320;2023-09-19T04:47:00;24;24;
77699;PMS5003;66867;42.658;23.320;2023-09-19T04:48:00;24;24;
77699;PMS5003;66867;42.658;23.320;2023-09-19T04:49:00;22;22;
77699;PMS5003;66867;42.658;23.320;2023-09-19T04:50:00;24;23;
77699;PMS5003;66867;42.658;23.320;2023-09-19T04:51:00;23;21;
77699;PMS5003;66867;42.658;23.320;2023-09-19T04:52:00;27;26;
77699;PMS5003;66867;42.658;23.320;2023-09-19T04:53:00;25;24;
77699;PMS5003;66867;42.658;23.320;2023-09-19T04:54:00;23;23;
77699;PMS5003;66867;42.658;23.320;2023-09-19T04:55:00;31;28;
77699;PMS5003;66867;42.658;23.320;2023-09-19T04:56:00;37;30;
77699;PMS5003;66867;42.658;23.320;2023-09-19T04:57:00;31;30;
77699;PMS5003;66867;42.658;23.320;2023-09-19T04:58:00;26;26;
77699;PMS5003;66867;42.658;23.320;2023-09-19T04:59:00;28;26;
77699;PMS5003;66867;42.658;23.320;2023-09-19T05:00:00;23;23;
77699;PMS5003;66867;42.658;23.320;2023-09-19T05:01:00;24;23;
77699;PMS5003;66867;42.658;23.320;2023-09-19T05:02:00;27;26;
77699;PMS5003;66867;42.658;23.320;2023-09-19T05:03:00;25;24;
77699;PMS5003;66867;42.658;23.320;2023-09-19T05:04:00;22;21;
77699;PMS5003;66867;42.658;23.320;2023-09-19T05:05:00;21;21;
77699;PMS5003;66867;42.658;23.320;2023-09-19T05:06:00;27;27;
77699;PMS5003;66867;42.658;23.320;2023-09-19T05:07:00;23;22;
77699;PMS5003;66867;42.658;23.320;2023-09-19T05:08:00;26;23;
77699;PMS5003;66867;42.658;23.320;2023-09-19T05:09:00;23;22;
77699;PMS5003;66867;42.658;23.320;2023-09-19T05:10:00;21;20;
77699;PMS5003;66867;42.658;23.320;2023-09-19T05:11:02;22;21;
77699;PMS5003;66867;42.658;23.320;2023-09-19T05:12:00;23;20;
77699;PMS5003;66867;42.658;23.320;2023-09-19T05:13:00;24;24;
77699;PMS5003;66867;42.658;23.320;2023-09-19T05:14:00;22;21;
77699;PMS5003;66867;42.658;23.320;2023-09-19T05:15:00;20;18;
77699;PMS5003;66867;42.658;23.320;2023-09-19T05:16:00;23;22;
77699;PMS5003;66867;42.658;23.320;2023-09-19T05:17:00;22;21;
77699;PMS5003;66867;42.658;23.320;2023-09-19T05:18:00;27;26;
77699;PMS5003;66867;42.658;23.320;2023-09-19T05:19:00;19;19;
77699;PMS5003;66867;42.658;23.320;2023-09-19T05:20:01;18;18;
77699;PMS5003;66867;42.658;23.320;2023-09-19T05:21:02;24;23;
77699;PMS5003;66867;42.658;23.320;2023-09-19T05:22:00;21;20;
77699;PMS5003;66867;42.658;23.320;2023-09-19T05:23:02;22;20;
77699;PMS5003;66867;42.658;23.320;2023-09-19T05:24:00;24;23;
77699;PMS5003;66867;42.658;23.320;2023-09-19T05:25:00;23;22;
77699;PMS5003;66867;42.658;23.320;2023-09-19T05:26:00;21;21;
77699;PMS5003;66867;42.658;23.320;2023-09-19T05:27:00;24;23;
77699;PMS5003;66867;42.658;23.320;2023-09-19T05:28:00;22;22;
77699;PMS5003;66867;42.658;23.320;2023-09-19T05:29:00;22;21;
77699;PMS5003;66867;42.658;23.320;2023-09-19T05:30:00;27;26;
77699;PMS5003;66867;42.658;23.320;2023-09-19T05:31:01;22;22;
77699;PMS5003;66867;42.658;23.320;2023-09-19T05:32:00;21;21;
77699;PMS5003;66867;42.658;23.320;2023-09-19T05:33:00;27;25;
77699;PMS5003;66867;42.658;23.320;2023-09-19T05:34:00;25;23;
77699;PMS5003;66867;42.658;23.320;2023-09-19T05:35:00;21;21;
77699;PMS5003;66867;42.658;23.320;2023-09-19T05:36:00;19;19;
77699;PMS5003;66867;42.658;23.320;2023-09-19T05:37:00;23;20;
77699;PMS5003;66867;42.658;23.320;2023-09-19T05:38:00;25;25;
77699;PMS5003;66867;42.658;23.320;2023-09-19T05:39:00;22;21;
77699;PMS5003;66867;42.658;23.320;2023-09-19T05:40:00;19;19;
77699;PMS5003;66867;42.658;23.320;2023-09-19T05:41:00;21;21;
77699;PMS5003;66867;42.658;23.320;2023-09-19T05:42:00;18;18;
77699;PMS5003;66867;42.658;23.320;2023-09-19T05:43:00;22;21;
77699;PMS5003;66867;42.658;23.320;2023-09-19T05:44:00;18;18;
77699;PMS5003;66867;42.658;23.320;2023-09-19T05:45:00;20;18;
77699;PMS5003;66867;42.658;23.320;2023-09-19T05:46:00;23;20;
77699;PMS5003;66867;42.658;23.320;2023-09-19T05:47:00;19;19;
77699;PMS5003;66867;42.658;23.320;2023-09-19T05:48:15;19;19;
77699;PMS5003;66867;42.658;23.320;2023-09-19T05:49:00;20;19;
77699;PMS5003;66867;42.658;23.320;2023-09-19T05:50:00;22;20;
77699;PMS5003;66867;42.658;23.320;2023-09-19T05:51:00;18;18;
77699;PMS5003;66867;42.658;23.320;2023-09-19T05:52:00;19;19;
77699;PMS5003;66867;42.658;23.320;2023-09-19T05:53:00;19;19;
77699;PMS5003;66867;42.658;23.320;2023-09-19T05:54:00;20;20;
77699;PMS5003;66867;42.658;23.320;2023-09-19T05:55:00;21;21;
77699;PMS5003;66867;42.658;23.320;2023-09-19T05:56:00;21;20;
77699;PMS5003;66867;42.658;23.320;2023-09-19T05:57:00;18;17;
77699;PMS5003;66867;42.658;23.320;2023-09-19T05:58:00;17;17;
77699;PMS5003;66867;42.658;23.320;2023-09-19T05:59:00;19;18;
77699;PMS5003;66867;42.658;23.320;2023-09-19T06:00:00;21;19;
77699;PMS5003;66867;42.658;23.320;2023-09-19T06:01:00;20;19;
77699;PMS5003;66867;42.658;23.320;2023-09-19T06:02:00;21;20;
77699;PMS5003;66867;42.658;23.320;2023-09-19T06:03:00;17;17;
77699;PMS5003;66867;42.658;23.320;2023-09-19T06:04:00;18;18;
77699;PMS5003;66867;42.658;23.320;2023-09-19T06:05:00;16;16;
77699;PMS5003;66867;42.658;23.320;2023-09-19T06:06:00;17;17;
77699;PMS5003;66867;42.658;23.320;2023-09-19T06:07:00;20;20;
77699;PMS5003;66867;42.658;23.320;2023-09-19T06:08:00;21;19;
77699;PMS5003;66867;42.658;23.320;2023-09-19T06:09:00;15;15;
77699;PMS5003;66867;42.658;23.320;2023-09-19T06:10:00;17;17;
77699;PMS5003;66867;42.658;23.320;2023-09-19T06:11:00;19;17;
77699;PMS5003;66867;42.658;23.320;2023-09-19T06:12:00;13;13;
77699;PMS5003;66867;42.658;23.320;2023-09-19T06:13:02;17;16;
77699;PMS5003;66867;42.658;23.320;2023-09-19T06:14:01;18;18;
77699;PMS5003;66867;42.658;23.320;2023-09-19T06:15:00;18;17;
77699;PMS5003;66867;42.658;23.320;2023-09-19T06:16:00;18;17;
77699;PMS5003;66867;42.658;23.320;2023-09-19T06:17:00;13;13;
77699;PMS5003;66867;42.658;23.320;2023-09-19T06:18:00;13;13;
77699;PMS5003;66867;42.658;23.320;2023-09-19T06:19:00;16;16;
77699;PMS5003;66867;42.658;23.320;2023-09-19T06:20:00;14;14;
77699;PMS5003;66867;42.658;23.320;2023-09-19T06:21:00;17;17;
77699;PMS5003;66867;42.658;23.320;2023-09-19T06:22:00;14;14;
77699;PMS5003;66867;42.658;23.320;2023-09-19T06:23:00;14;13;
77699;PMS5003;66867;42.658;23.320;2023-09-19T06:24:00;13;13;
77699;PMS5003;66867;42.658;23.320;2023-09-19T06:25:00;17;17;
77699;PMS5003;66867;42.658;23.320;2023-09-19T06:26:00;15;15;
77699;PMS5003;66867;42.658;23.320;2023-09-19T06:27:00;14;14;
77699;PMS5003;66867;42.658;23.320;2023-09-19T06:28:00;17;16;
77699;PMS5003;66867;42.658;23.320;2023-09-19T06:29:00;16;15;
77699;PMS5003;66867;42.658;23.320;2023-09-19T06:30:00;15;14;
77699;PMS5003;66867;42.658;23.320;2023-09-19T06:31:02;15;15;
77699;PMS5003;66867;42.658;23.320;2023-09-19T06:32:00;15;13;
77699;PMS5003;66867;42.658;23.320;2023-09-19T06:33:00;16;15;
77699;PMS5003;66867;42.658;23.320;2023-09-19T06:34:00;15;15;
77699;PMS5003;66867;42.658;23.320;2023-09-19T06:35:00;14;14;
77699;PMS5003;66867;42.658;23.320;2023-09-19T06:36:02;13;13;
77699;PMS5003;66867;42.658;23.320;2023-09-19T06:37:00;15;15;
77699;PMS5003;66867;42.658;23.320;2023-09-19T06:38:04;14;14;
77699;PMS5003;66867;42.658;23.320;2023-09-19T06:39:00;15;14;
77699;PMS5003;66867;42.658;23.320;2023-09-19T06:40:00;14;14;
77699;PMS5003;66867;42.658;23.320;2023-09-19T06:41:00;12;12;
77699;PMS5003;66867;42.658;23.320;2023-09-19T06:42:00;15;15;